Time;durP1;ratioP1;P1;durP2;ratioP2;P2;SDS_P1;SDS_P2;PMS_P1;PMS_P2;Temp;Humidity;BMP_temperature;BMP_pressure;BME280_temperature;BME280_humidity;BME280_pressure;Samples;Min_cycle;Max_cycle;Signal;HPM_P1;HPM_P2
2022/08/30 00:02:59;;;;;;;12.23;5.68;;;15.80;99.90;;;;;;5097802;28;20032;-95
2022/08/30 00:05:26;;;;;;;11.38;5.57;;;15.80;99.90;;;;;;5086397;28;20466;-96
2022/08/30 00:07:52;;;;;;;9.65;5.30;;;15.80;99.90;;;;;;5078501;28;20040;-95
2022/08/30 00:10:20;;;;;;;11.80;5.63;;;15.80;99.90;;;;;;5079814;28;20083;-96
2022/08/30 00:12:46;;;;;;;9.73;5.13;;;15.70;99.90;;;;;;5117894;28;20087;-95
2022/08/30 00:15:12;;;;;;;11.82;5.63;;;15.70;99.90;;;;;;5081624;28;20048;-95
2022/08/30 00:17:38;;;;;;;11.10;5.60;;;15.70;99.90;;;;;;5095940;28;20157;-95
2022/08/30 00:20:09;;;;;;;10.00;5.40;;;16.10;99.90;;;;;;5095444;28;20115;-95
2022/08/30 00:22:35;;;;;;;13.77;6.03;;;15.70;99.90;;;;;;5077986;28;20538;-95
2022/08/30 00:25:00;;;;;;;10.32;5.53;;;15.70;99.90;;;;;;5081133;28;20125;-95
2022/08/30 00:27:27;;;;;;;10.13;5.60;;;15.70;99.90;;;;;;5080947;28;20047;-95
2022/08/30 00:29:53;;;;;;;9.70;5.53;;;15.70;99.90;;;;;;5099423;28;20085;-95
2022/08/30 00:32:20;;;;;;;11.52;5.68;;;15.70;99.90;;;;;;5081588;28;20089;-96
2022/08/30 00:34:47;;;;;;;11.52;5.53;;;15.70;99.90;;;;;;5103817;28;20134;-95
2022/08/30 00:37:13;;;;;;;9.73;5.35;;;15.70;99.90;;;;;;5083883;28;20055;-95
2022/08/30 00:39:39;;;;;;;10.70;5.40;;;15.70;99.90;;;;;;5082004;28;20036;-96
2022/08/30 00:42:06;;;;;;;10.38;5.70;;;15.60;99.90;;;;;;5081798;28;20047;-95
2022/08/30 00:44:31;;;;;;;12.15;5.78;;;15.60;99.90;;;;;;5081854;28;20047;-95
2022/08/30 00:46:57;;;;;;;13.70;6.45;;;15.60;99.90;;;;;;5100162;28;20487;-95
2022/08/30 00:49:23;;;;;;;13.00;6.28;;;15.60;99.90;;;;;;5081921;28;20048;-95
2022/08/30 00:51:49;;;;;;;10.65;6.00;;;15.60;99.90;;;;;;5081130;28;20051;-95
2022/08/30 00:54:15;;;;;;;12.05;6.43;;;15.60;99.90;;;;;;5099737;28;20044;-95
2022/08/30 00:56:41;;;;;;;11.52;6.22;;;15.50;99.90;;;;;;5081273;28;20479;-94
2022/08/30 00:59:09;;;;;;;12.88;6.53;;;15.80;99.90;;;;;;5081599;28;20059;-95
2022/08/30 01:01:36;;;;;;;11.43;6.13;;;15.50;99.90;;;;;;5081552;28;20048;-95
2022/08/30 01:04:03;;;;;;;10.43;5.90;;;15.50;99.90;;;;;;5081400;28;20502;-95
2022/08/30 01:06:31;;;;;;;12.02;6.15;;;15.50;99.90;;;;;;5081322;28;20044;-95
2022/08/30 01:08:57;;;;;;;12.18;6.40;;;15.50;99.90;;;;;;5082321;28;20113;-95
2022/08/30 01:11:24;;;;;;;10.80;6.25;;;15.40;99.90;;;;;;5081033;28;20479;-94
2022/08/30 01:13:52;;;;;;;11.32;6.18;;;15.40;99.90;;;;;;5099870;28;20050;-95
2022/08/30 01:16:17;;;;;;;13.30;6.90;;;15.40;99.90;;;;;;5095324;28;20040;-95
2022/08/30 01:18:43;;;;;;;12.15;6.55;;;15.30;99.90;;;;;;5099642;28;20160;-94
2022/08/30 01:21:26;;;;;;;11.68;6.38;;;15.30;99.90;;;;;;5065738;28;20040;-95
2022/08/30 01:23:55;;;;;;;11.25;6.43;;;15.20;99.90;;;;;;5079203;28;20088;-94
2022/08/30 01:26:21;;;;;;;15.00;6.50;;;15.20;99.90;;;;;;5087369;28;20087;-95
2022/08/30 01:28:51;;;;;;;13.60;6.47;;;15.20;99.90;;;;;;5080604;28;20041;-94
2022/08/30 01:31:17;;;;;;;12.07;6.32;;;15.10;99.90;;;;;;5079325;28;20128;-94
2022/08/30 01:33:43;;;;;;;11.20;6.22;;;15.10;99.90;;;;;;5081290;28;20068;-94
2022/08/30 01:36:12;;;;;;;13.43;6.80;;;15.00;99.90;;;;;;5063291;28;20033;-95
2022/08/30 01:38:48;;;;;;;11.02;6.30;;;15.00;99.90;;;;;;5061589;28;20549;-94
2022/08/30 01:41:21;;;;;;;11.75;6.90;;;15.00;99.90;;;;;;5061258;28;20047;-94
2022/08/30 01:43:49;;;;;;;12.43;6.20;;;14.90;99.90;;;;;;5062507;28;20040;-94
2022/08/30 01:46:16;;;;;;;12.00;6.22;;;14.90;99.90;;;;;;5061573;28;20056;-95
2022/08/30 01:48:43;;;;;;;11.50;5.82;;;14.80;99.90;;;;;;5079431;28;20480;-94
2022/08/30 01:51:14;;;;;;;9.93;5.93;;;15.00;99.90;;;;;;5062176;28;20499;-94
2022/08/30 01:53:41;;;;;;;12.15;6.38;;;14.80;99.90;;;;;;5064645;28;20048;-94
2022/08/30 01:56:08;;;;;;;11.40;5.80;;;14.70;99.90;;;;;;5073342;28;20016;-94
2022/08/30 01:58:34;;;;;;;11.43;6.20;;;14.70;99.90;;;;;;5098182;28;20106;-94
2022/08/30 02:01:05;;;;;;;12.32;6.20;;;14.70;99.90;;;;;;5080322;28;20044;-94
2022/08/30 02:03:33;;;;;;;11.85;6.28;;;14.60;99.90;;;;;;5066510;28;20175;-94
2022/08/30 02:06:08;;;;;;;12.02;6.50;;;14.60;99.90;;;;;;5076486;28;20039;-94
2022/08/30 02:08:35;;;;;;;12.43;6.88;;;14.60;99.90;;;;;;5073312;28;20048;-94
2022/08/30 02:11:00;;;;;;;11.93;6.82;;;14.50;99.90;;;;;;5062245;28;20057;-94
2022/08/30 02:13:26;;;;;;;12.00;6.68;;;14.50;99.90;;;;;;5079310;28;20051;-94
2022/08/30 02:15:53;;;;;;;12.35;7.38;;;14.50;99.90;;;;;;5062847;28;20040;-94
2022/08/30 02:18:19;;;;;;;13.10;6.53;;;14.50;99.90;;;;;;5079220;28;20036;-95
2022/08/30 02:20:45;;;;;;;13.48;7.07;;;14.50;99.90;;;;;;5077711;28;20052;-94
2022/08/30 02:23:11;;;;;;;12.45;7.05;;;14.40;99.90;;;;;;5067975;28;20036;-94
2022/08/30 02:25:37;;;;;;;15.18;7.30;;;14.40;99.90;;;;;;5091181;28;20106;-94
2022/08/30 02:28:04;;;;;;;12.65;7.05;;;14.40;99.90;;;;;;5077854;28;20055;-94
2022/08/30 02:30:30;;;;;;;11.90;6.85;;;15.40;99.90;;;;;;5078453;28;20099;-95
2022/08/30 02:32:55;;;;;;;12.27;7.90;;;14.40;99.90;;;;;;5079218;28;20044;-95
2022/08/30 02:35:22;;;;;;;13.93;7.05;;;14.30;99.90;;;;;;5078455;28;20408;-94
2022/08/30 02:37:47;;;;;;;14.32;6.93;;;14.30;99.90;;;;;;5077641;28;20040;-95
2022/08/30 02:40:13;;;;;;;13.70;7.47;;;14.30;99.90;;;;;;5077257;28;20432;-95
2022/08/30 02:42:40;;;;;;;14.65;7.65;;;14.30;99.90;;;;;;5076931;28;20041;-94
2022/08/30 02:45:07;;;;;;;13.88;7.72;;;14.30;99.90;;;;;;5076762;28;20066;-94
2022/08/30 02:47:33;;;;;;;15.15;7.70;;;14.20;99.90;;;;;;5074232;28;20051;-94
2022/08/30 02:50:02;;;;;;;13.02;7.43;;;14.20;99.90;;;;;;5079374;28;20047;-94
2022/08/30 02:52:28;;;;;;;13.23;7.68;;;14.20;99.90;;;;;;5084665;28;20036;-94
2022/08/30 02:54:54;;;;;;;13.20;7.80;;;14.20;99.90;;;;;;5074468;28;20128;-95
2022/08/30 02:57:19;;;;;;;12.98;7.15;;;14.10;99.90;;;;;;5064009;28;20093;-94
2022/08/30 02:59:46;;;;;;;13.60;7.95;;;14.10;99.90;;;;;;5078354;28;20044;-95
2022/08/30 03:02:12;;;;;;;14.15;7.97;;;14.00;99.90;;;;;;5098461;28;20056;-95
2022/08/30 03:04:38;;;;;;;13.90;7.82;;;14.00;99.90;;;;;;5059233;28;20052;-94
2022/08/30 03:07:07;;;;;;;12.77;8.45;;;13.90;99.90;;;;;;5058779;28;20044;-95
2022/08/30 03:09:34;;;;;;;14.05;8.10;;;13.90;99.90;;;;;;5059690;28;20047;-94
2022/08/30 03:12:00;;;;;;;13.60;8.02;;;13.90;99.90;;;;;;5076542;28;20060;-94
2022/08/30 03:14:26;;;;;;;13.65;8.05;;;13.80;99.90;;;;;;5065035;28;20036;-94
2022/08/30 03:16:53;;;;;;;15.02;7.57;;;13.80;99.90;;;;;;5075424;28;20380;-94
2022/08/30 03:19:21;;;;;;;17.83;8.68;;;13.70;99.90;;;;;;5058076;28;20033;-93
2022/08/30 03:21:47;;;;;;;13.70;7.78;;;13.70;99.90;;;;;;5075624;28;20109;-94
2022/08/30 03:24:13;;;;;;;12.68;7.75;;;13.60;99.90;;;;;;5057878;28;20041;-94
2022/08/30 03:26:38;;;;;;;13.88;8.05;;;14.10;99.90;;;;;;5076482;28;20072;-94
2022/08/30 03:29:04;;;;;;;12.73;7.30;;;13.70;99.90;;;;;;5059397;28;20055;-94
2022/08/30 03:31:29;;;;;;;13.73;7.68;;;13.50;99.90;;;;;;5076799;28;20047;-94
2022/08/30 03:33:55;;;;;;;14.05;8.35;;;13.50;99.90;;;;;;5059413;28;20104;-93
2022/08/30 03:36:21;;;;;;;12.60;8.23;;;13.50;99.90;;;;;;5058684;28;20152;-94
2022/08/30 03:38:46;;;;;;;14.38;8.77;;;13.50;99.90;;;;;;5079071;28;20044;-94
2022/08/30 03:41:12;;;;;;;16.35;8.05;;;13.30;99.90;;;;;;5059962;28;20044;-93
2022/08/30 03:43:38;;;;;;;15.65;8.60;;;13.40;99.90;;;;;;5058073;28;20036;-94
2022/08/30 03:46:03;;;;;;;14.38;8.90;;;13.30;99.90;;;;;;5058066;28;20033;-94
2022/08/30 03:48:29;;;;;;;14.23;9.13;;;13.30;99.90;;;;;;5076150;28;20566;-94
2022/08/30 03:50:55;;;;;;;16.17;9.32;;;13.20;99.90;;;;;;5075173;28;20091;-94
2022/08/30 03:53:20;;;;;;;15.15;9.82;;;13.20;99.90;;;;;;5069118;28;20051;-93
2022/08/30 03:55:46;;;;;;;15.20;9.77;;;13.20;99.90;;;;;;5076625;28;20384;-94
2022/08/30 03:58:12;;;;;;;16.08;10.18;;;13.20;99.90;;;;;;5057605;28;20047;-95
2022/08/30 04:00:37;;;;;;;16.77;9.45;;;13.40;99.90;;;;;;5099687;28;20123;-93
2022/08/30 04:03:03;;;;;;;14.98;9.75;;;13.00;99.90;;;;;;5077087;28;20037;-94
2022/08/30 04:05:30;;;;;;;17.15;10.55;;;13.10;99.90;;;;;;5107537;28;20391;-94
2022/08/30 04:07:56;;;;;;;15.48;10.20;;;13.90;99.90;;;;;;5116394;28;20074;-94
2022/08/30 04:10:23;;;;;;;15.13;9.70;;;13.00;99.90;;;;;;5090455;28;20059;-94
2022/08/30 04:12:49;;;;;;;14.65;9.30;;;13.00;99.90;;;;;;5081908;28;20410;-94
2022/08/30 04:15:16;;;;;;;15.10;9.60;;;12.90;99.90;;;;;;5077935;28;20075;-93
2022/08/30 04:17:42;;;;;;;15.93;10.52;;;12.90;99.90;;;;;;5077143;28;20046;-94
2022/08/30 04:20:08;;;;;;;15.93;9.23;;;13.40;99.90;;;;;;5078536;28;20459;-94
2022/08/30 04:22:35;;;;;;;17.48;10.20;;;12.90;99.90;;;;;;5082832;28;20044;-94
2022/08/30 04:25:01;;;;;;;16.67;9.70;;;12.80;99.90;;;;;;5096972;28;20040;-94
2022/08/30 04:27:27;;;;;;;15.88;9.93;;;12.80;99.90;;;;;;5078955;28;20518;-94
2022/08/30 04:29:54;;;;;;;15.32;9.00;;;12.80;99.90;;;;;;5106840;28;20040;-94
2022/08/30 04:32:20;;;;;;;16.40;8.93;;;12.80;99.90;;;;;;5110407;28;20132;-94
2022/08/30 04:34:47;;;;;;;16.98;9.68;;;12.70;99.90;;;;;;5079771;28;20071;-94
2022/08/30 04:37:13;;;;;;;16.77;9.55;;;12.70;99.90;;;;;;5085194;28;20044;-94
2022/08/30 04:39:39;;;;;;;14.45;8.90;;;12.70;99.90;;;;;;5095351;28;20051;-94
2022/08/30 04:42:05;;;;;;;16.70;9.35;;;12.70;99.90;;;;;;5097620;28;20043;-93
2022/08/30 04:44:31;;;;;;;18.40;10.10;;;13.20;99.90;;;;;;5077990;28;20036;-93
2022/08/30 04:46:57;;;;;;;16.63;10.23;;;12.60;99.90;;;;;;5095651;28;20094;-94
2022/08/30 04:49:23;;;;;;;14.60;9.27;;;12.60;99.90;;;;;;5096036;28;20044;-94
2022/08/30 04:51:50;;;;;;;14.73;9.25;;;12.60;99.90;;;;;;5080117;28;20044;-94
2022/08/30 04:54:16;;;;;;;15.27;10.15;;;12.60;99.90;;;;;;5079736;28;20504;-94
2022/08/30 04:56:42;;;;;;;18.08;9.80;;;13.30;99.90;;;;;;5104579;28;20040;-93
2022/08/30 04:59:08;;;;;;;19.60;10.20;;;12.60;99.90;;;;;;5115372;28;20048;-93
2022/08/30 05:01:34;;;;;;;19.67;10.35;;;12.60;99.90;;;;;;5104303;28;20040;-93
2022/08/30 05:04:00;;;;;;;17.10;9.95;;;12.60;99.90;;;;;;5102367;28;20562;-94
2022/08/30 05:06:29;;;;;;;16.05;9.55;;;12.60;99.90;;;;;;5082638;28;20040;-93
2022/08/30 05:08:56;;;;;;;16.98;9.88;;;12.60;99.90;;;;;;5082895;28;20099;-93
2022/08/30 05:11:22;;;;;;;15.00;9.65;;;12.60;99.90;;;;;;5104439;28;20055;-93
2022/08/30 05:13:48;;;;;;;17.73;9.93;;;12.60;99.90;;;;;;5084247;28;20141;-94
2022/08/30 05:16:16;;;;;;;15.43;9.55;;;12.60;99.90;;;;;;5102214;28;20040;-93
2022/08/30 05:18:43;;;;;;;18.10;9.85;;;12.60;99.90;;;;;;5101269;28;20063;-94
2022/08/30 05:21:16;;;;;;;18.33;9.45;;;12.60;99.90;;;;;;5083276;28;20507;-94
2022/08/30 05:23:42;;;;;;;16.95;9.98;;;12.60;99.90;;;;;;5082506;28;20488;-95
2022/08/30 05:26:12;;;;;;;17.00;9.88;;;12.60;99.90;;;;;;5081054;28;20032;-94
2022/08/30 05:28:38;;;;;;;15.98;9.70;;;12.10;99.90;;;;;;5084524;28;20048;-94
2022/08/30 05:31:13;;;;;;;16.83;10.25;;;12.60;99.90;;;;;;5078851;28;20364;-94
2022/08/30 05:33:38;;;;;;;16.05;10.65;;;13.10;99.90;;;;;;5097701;28;20550;-92
2022/08/30 05:36:07;;;;;;;16.63;10.55;;;12.70;99.90;;;;;;5098510;28;20048;-93
2022/08/30 05:38:33;;;;;;;16.67;10.38;;;12.70;99.90;;;;;;5078901;28;20349;-93
2022/08/30 05:40:59;;;;;;;17.15;10.73;;;12.70;99.90;;;;;;5079033;28;20391;-94
2022/08/30 05:43:24;;;;;;;16.52;10.27;;;12.80;99.90;;;;;;5105521;28;20024;-94
2022/08/30 05:45:59;;;;;;;16.52;10.13;;;12.80;99.90;;;;;;5115499;28;20039;-93
2022/08/30 05:48:24;;;;;;;15.65;10.15;;;12.80;99.90;;;;;;5103997;28;20040;-93
2022/08/30 05:50:50;;;;;;;16.27;10.13;;;12.90;99.90;;;;;;5098255;28;20403;-94
2022/08/30 05:53:15;;;;;;;17.73;9.13;;;12.90;99.90;;;;;;5113190;28;20130;-94
2022/08/30 05:55:41;;;;;;;14.57;9.18;;;13.00;99.90;;;;;;5098513;28;20044;-94
2022/08/30 05:58:07;;;;;;;18.45;9.50;;;13.00;99.90;;;;;;5102497;28;20035;-93
2022/08/30 06:00:35;;;;;;;17.92;10.13;;;13.00;99.90;;;;;;5088562;28;20051;-93
2022/08/30 06:03:01;;;;;;;15.18;9.00;;;13.10;99.90;;;;;;5083354;28;20052;-93
2022/08/30 06:05:27;;;;;;;14.10;9.05;;;13.10;99.90;;;;;;5080756;28;20040;-93
2022/08/30 06:07:53;;;;;;;21.05;9.93;;;13.10;99.90;;;;;;5099098;28;20038;-94
2022/08/30 06:10:18;;;;;;;15.43;8.48;;;13.20;99.90;;;;;;5081843;28;20482;-93
2022/08/30 06:12:44;;;;;;;14.38;9.05;;;13.30;99.90;;;;;;5082044;28;20055;-89
2022/08/30 06:15:10;;;;;;;15.88;9.65;;;13.20;99.90;;;;;;5091005;28;20046;-86
2022/08/30 06:17:38;;;;;;;15.50;9.00;;;13.30;99.90;;;;;;5082001;28;20462;-86
2022/08/30 06:20:04;;;;;;;13.82;8.45;;;13.30;99.90;;;;;;5076455;28;20047;-86
2022/08/30 06:22:30;;;;;;;15.82;9.20;;;13.30;99.90;;;;;;5094659;28;20076;-86
2022/08/30 06:24:55;;;;;;;15.55;8.60;;;13.40;99.90;;;;;;5076137;28;20083;-86
2022/08/30 06:27:21;;;;;;;15.45;8.52;;;13.40;99.90;;;;;;5093387;28;20054;-86
2022/08/30 06:29:50;;;;;;;16.73;9.13;;;13.40;99.90;;;;;;5094450;28;20047;-89
2022/08/30 06:32:16;;;;;;;13.88;8.25;;;13.50;99.90;;;;;;5094444;28;20044;-87
2022/08/30 06:34:44;;;;;;;14.18;8.70;;;13.60;99.90;;;;;;5093707;28;20066;-87
2022/08/30 06:37:11;;;;;;;15.60;8.48;;;13.60;99.90;;;;;;5094279;28;20055;-88
2022/08/30 06:39:37;;;;;;;14.40;8.20;;;13.70;99.90;;;;;;5093630;28;20058;-88
2022/08/30 06:42:03;;;;;;;15.60;7.70;;;13.70;99.90;;;;;;5093073;28;20499;-87
2022/08/30 06:44:28;;;;;;;13.35;7.40;;;13.80;99.90;;;;;;5075795;28;20048;-87
2022/08/30 06:46:54;;;;;;;12.57;7.18;;;14.20;99.90;;;;;;5088211;22;20051;-86
2022/08/30 06:49:35;;;;;;;12.38;6.65;;;13.90;99.90;;;;;;5113580;28;20040;-88
2022/08/30 06:52:01;;;;;;;13.45;7.13;;;14.30;99.90;;;;;;5088076;28;20486;-85
2022/08/30 06:54:27;;;;;;;10.88;5.95;;;14.20;99.90;;;;;;5080402;28;20044;-85
2022/08/30 06:56:53;;;;;;;11.98;6.00;;;14.40;99.90;;;;;;5094183;28;20048;-85
2022/08/30 06:59:18;;;;;;;11.60;5.40;;;14.50;99.90;;;;;;5075345;28;20071;-85
2022/08/30 07:01:44;;;;;;;9.95;4.80;;;14.60;99.90;;;;;;5093461;28;20044;-85
2022/08/30 07:04:09;;;;;;;9.73;4.78;;;14.70;99.90;;;;;;5075930;28;20419;-85
2022/08/30 07:06:35;;;;;;;8.98;4.63;;;14.90;99.90;;;;;;5093356;28;20039;-85
2022/08/30 07:09:01;;;;;;;9.57;4.40;;;15.00;99.90;;;;;;5093195;28;20048;-83
2022/08/30 07:11:31;;;;;;;9.80;4.18;;;15.10;99.90;;;;;;5111721;28;20047;-83
2022/08/30 07:13:57;;;;;;;8.80;3.92;;;15.80;99.90;;;;;;5095596;28;20047;-83
2022/08/30 07:16:23;;;;;;;10.23;3.85;;;15.30;99.90;;;;;;5094522;28;20047;-83
2022/08/30 07:18:49;;;;;;;9.30;3.30;;;16.00;99.90;;;;;;5095588;28;20088;-83
2022/08/30 07:21:18;;;;;;;8.73;3.42;;;15.50;99.90;;;;;;5094938;28;20130;-84
2022/08/30 07:23:45;;;;;;;8.32;2.92;;;15.60;99.90;;;;;;5112721;28;20036;-83
2022/08/30 07:26:13;;;;;;;7.70;2.40;;;15.70;99.90;;;;;;5113952;28;20108;-83
2022/08/30 07:28:40;;;;;;;8.05;2.65;;;15.80;99.90;;;;;;5113415;28;20069;-84
2022/08/30 07:31:06;;;;;;;6.53;2.13;;;16.00;99.90;;;;;;5095199;28;20372;-83
2022/08/30 07:33:32;;;;;;;9.48;2.50;;;16.10;99.90;;;;;;5112737;28;20038;-83
2022/08/30 07:35:58;;;;;;;6.82;2.40;;;16.10;99.90;;;;;;5095670;28;20048;-83
2022/08/30 07:38:25;;;;;;;7.63;2.35;;;16.70;99.90;;;;;;5094700;28;20494;-83
2022/08/30 07:40:50;;;;;;;8.15;2.50;;;16.30;99.90;;;;;;5113920;28;20092;-83
2022/08/30 07:43:16;;;;;;;8.43;2.40;;;16.40;99.90;;;;;;5101529;28;20039;-83
2022/08/30 07:45:41;;;;;;;7.38;2.47;;;16.50;99.90;;;;;;5107398;28;20096;-84
2022/08/30 07:48:10;;;;;;;8.80;2.63;;;16.60;99.90;;;;;;5098165;28;20075;-83
2022/08/30 07:50:36;;;;;;;7.95;2.70;;;16.60;99.90;;;;;;5098374;28;20052;-84
2022/08/30 07:53:02;;;;;;;9.63;2.70;;;16.70;99.90;;;;;;5104255;28;20054;-84
2022/08/30 07:55:27;;;;;;;8.25;3.10;;;16.80;99.90;;;;;;5095251;28;20042;-84
2022/08/30 07:57:53;;;;;;;8.70;2.70;;;17.30;99.90;;;;;;5094426;28;20048;-84
2022/08/30 08:00:19;;;;;;;7.40;2.72;;;16.90;99.90;;;;;;5094802;28;20036;-84
2022/08/30 08:02:45;;;;;;;9.27;2.80;;;17.00;99.90;;;;;;5113311;28;20042;-84
2022/08/30 08:05:10;;;;;;;7.15;2.60;;;17.10;99.90;;;;;;5094277;28;20039;-84
2022/08/30 08:07:36;;;;;;;9.55;2.67;;;17.10;99.90;;;;;;5113019;28;20105;-84
2022/08/30 08:10:02;;;;;;;7.38;2.30;;;17.30;99.90;;;;;;5113153;28;20039;-83
2022/08/30 08:12:30;;;;;;;7.82;2.30;;;17.40;99.90;;;;;;5112020;28;20090;-87
2022/08/30 08:14:56;;;;;;;8.52;2.10;;;17.70;99.90;;;;;;5095477;28;20039;-90
2022/08/30 08:17:21;;;;;;;7.97;2.55;;;17.50;99.90;;;;;;5113232;28;20085;-87
2022/08/30 08:19:50;;;;;;;7.60;2.55;;;18.10;99.90;;;;;;5094623;28;20051;-88
2022/08/30 08:22:15;;;;;;;6.85;2.35;;;18.40;99.90;;;;;;5113376;28;20043;-88
2022/08/30 08:24:41;;;;;;;7.32;2.17;;;17.60;99.90;;;;;;5113215;28;20084;-89
2022/08/30 08:27:07;;;;;;;7.10;2.03;;;18.40;99.90;;;;;;5094041;28;20521;-86
2022/08/30 08:29:33;;;;;;;6.88;2.20;;;17.90;99.90;;;;;;5088525;22;20577;-87
2022/08/30 08:31:59;;;;;;;7.13;2.10;;;18.40;99.90;;;;;;5073945;28;20044;-87
2022/08/30 08:34:26;;;;;;;7.75;2.25;;;18.80;99.90;;;;;;5053364;28;20671;-88
2022/08/30 08:36:54;;;;;;;8.48;2.10;;;18.90;99.90;;;;;;5072693;28;20156;-87
2022/08/30 08:39:32;;;;;;;5.38;1.90;;;18.20;99.90;;;;;;5071841;28;20408;-87
2022/08/30 08:42:39;;;;;;;7.50;2.10;;;18.70;99.90;;;;;;5071841;28;20045;-86
2022/08/30 08:45:33;;;;;;;10.00;2.30;;;18.30;99.90;;;;;;4997168;28;20065;-86
2022/08/30 08:48:26;;;;;;;5.53;1.80;;;19.00;99.90;;;;;;4996864;28;20057;-87
2022/08/30 08:54:09;;;;;;;5.80;1.80;;;19.10;99.90;;;;;;5057435;28;20135;-87
2022/08/30 08:56:53;;;;;;;6.93;2.00;;;19.10;99.90;;;;;;5058121;28;20039;-87
2022/08/30 08:59:19;;;;;;;6.90;2.03;;;18.70;99.90;;;;;;5057634;28;20137;-86
2022/08/30 09:01:46;;;;;;;6.72;2.10;;;18.80;99.90;;;;;;5075398;28;20068;-87
2022/08/30 09:04:33;;;;;;;5.15;1.75;;;19.60;99.90;;;;;;5076160;28;20051;-87
2022/08/30 09:07:02;;;;;;;6.32;1.80;;;19.70;99.90;;;;;;5075606;28;20044;-86
2022/08/30 09:09:37;;;;;;;6.88;1.75;;;18.90;99.90;;;;;;5090614;28;20037;-87
2022/08/30 09:12:14;;;;;;;5.03;1.70;;;20.00;99.90;;;;;;5057734;28;20102;-87
2022/08/30 09:14:54;;;;;;;7.25;1.92;;;19.10;99.90;;;;;;5057647;28;20043;-87
2022/08/30 09:17:20;;;;;;;6.72;2.00;;;19.10;99.90;;;;;;5074914;28;20049;-86
2022/08/30 09:20:05;;;;;;;6.03;1.90;;;19.50;99.90;;;;;;5058822;28;20488;-87
2022/08/30 09:22:52;;;;;;;6.22;1.88;;;19.40;99.90;;;;;;5064635;28;20101;-86
2022/08/30 09:25:28;;;;;;;6.03;1.95;;;20.40;99.90;;;;;;5057916;28;20051;-86
2022/08/30 09:28:30;;;;;;;7.88;1.75;;;19.50;99.90;;;;;;5064252;28;20064;-87
2022/08/30 09:31:07;;;;;;;5.35;1.85;;;19.60;99.90;;;;;;5102475;28;20514;-86
2022/08/30 09:33:35;;;;;;;6.35;1.92;;;19.60;99.90;;;;;;5069707;28;20079;-88
2022/08/30 09:36:25;;;;;;;6.45;2.10;;;19.70;99.90;;;;;;5077398;28;20036;-84
2022/08/30 09:39:03;;;;;;;5.60;1.73;;;19.70;99.90;;;;;;5077626;28;20390;-85
2022/08/30 09:41:41;;;;;;;7.55;1.80;;;20.20;99.90;;;;;;5077444;28;20380;-84
2022/08/30 09:44:06;;;;;;;6.53;1.70;;;20.00;99.90;;;;;;5076396;28;20446;-85
2022/08/30 09:46:32;;;;;;;6.82;1.80;;;20.00;99.90;;;;;;5076961;28;20058;-86
2022/08/30 09:48:58;;;;;;;6.38;1.80;;;20.10;99.90;;;;;;5095583;28;20047;-85
2022/08/30 09:51:39;;;;;;;5.40;1.70;;;20.20;99.90;;;;;;5075843;28;20040;-85
2022/08/30 09:54:16;;;;;;;6.80;2.00;;;20.30;99.90;;;;;;5077157;28;20056;-85
2022/08/30 09:56:51;;;;;;;5.53;1.80;;;20.40;99.90;;;;;;5083328;28;20044;-85
2022/08/30 09:59:28;;;;;;;6.93;1.73;;;20.50;99.90;;;;;;5075993;28;20048;-88
2022/08/30 10:02:04;;;;;;;6.45;1.90;;;20.70;99.90;;;;;;5089378;28;20090;-85
2022/08/30 10:04:51;;;;;;;4.65;1.70;;;20.80;99.90;;;;;;5090510;28;20036;-85
2022/08/30 10:07:33;;;;;;;6.07;1.75;;;20.70;99.90;;;;;;5074073;28;20040;-86
2022/08/30 10:10:12;;;;;;;5.63;1.70;;;20.70;99.90;;;;;;5074377;28;20052;-86
2022/08/30 10:13:09;;;;;;;4.90;1.63;;;20.90;99.90;;;;;;5055522;28;20052;-87
2022/08/30 10:15:53;;;;;;;5.82;2.00;;;21.00;99.90;;;;;;5074516;28;20044;-87
2022/08/30 10:18:31;;;;;;;7.53;1.98;;;21.10;99.90;;;;;;5056239;28;20060;-85
2022/08/30 10:21:36;;;;;;;6.60;1.83;;;21.00;99.90;;;;;;5056407;28;20045;-86
2022/08/30 10:24:10;;;;;;;5.82;1.70;;;21.00;99.90;;;;;;5074631;28;20174;-86
2022/08/30 10:26:38;;;;;;;;;;;21.20;99.90;;;;;;5073664;28;20045;-88
2022/08/30 10:29:14;;;;;;;6.72;1.75;;;21.30;99.90;;;;;;5075421;28;19935;-87
2022/08/30 10:32:05;;;;;;;6.65;1.70;;;21.50;99.90;;;;;;5076604;28;20084;-87
2022/08/30 10:35:37;;;;;;;6.85;1.70;;;21.70;99.90;;;;;;5110790;22;20062;-88
2022/08/30 10:38:09;;;;;;;5.22;1.70;;;22.00;99.90;;;;;;5114718;28;20093;-86
2022/08/30 10:43:32;;;;;;;7.55;1.95;;;22.80;99.90;;;;;;5114204;28;20496;-88
2022/08/30 10:46:02;;;;;;;7.68;1.83;;;22.80;99.60;;;;;;5098284;27;20458;-87
2022/08/30 10:48:35;;;;;;;6.53;1.80;;;22.40;99.10;;;;;;5121606;27;20035;-88
2022/08/30 10:51:09;;;;;;;5.78;1.70;;;22.50;98.40;;;;;;5125390;27;20446;-88
2022/08/30 10:53:46;;;;;;;;;;;22.60;99.50;;;;;;5121707;27;20044;-88
2022/08/30 10:56:19;;;;;;;5.68;1.63;;;22.70;98.20;;;;;;5121763;27;19920;-88
2022/08/30 10:58:45;;;;;;;6.47;1.80;;;22.90;99.70;;;;;;5109540;27;20066;-87
2022/08/30 11:01:31;;;;;;;6.78;1.63;;;23.20;99.60;;;;;;5119526;27;20032;-88
2022/08/30 11:04:22;;;;;;;5.75;1.65;;;23.20;99.10;;;;;;5088369;27;20039;-89
2022/08/30 11:07:04;;;;;;;5.75;1.77;;;23.30;97.90;;;;;;5090571;28;20040;-88
2022/08/30 11:09:52;;;;;;;9.80;2.25;;;23.60;98.00;;;;;;5084374;28;20074;-88
2022/08/30 11:12:54;;;;;;;5.53;1.70;;;23.40;98.40;;;;;;5087101;27;20044;-88
2022/08/30 11:15:28;;;;;;;5.53;1.50;;;23.40;97.10;;;;;;5090250;27;20474;-87
2022/08/30 11:18:09;;;;;;;6.43;1.70;;;23.50;97.40;;;;;;5121529;27;20093;-89
2022/08/30 11:20:50;;;;;;;6.82;1.92;;;23.60;97.30;;;;;;5085697;27;20036;-87
2022/08/30 11:23:35;;;;;;;5.47;1.70;;;23.60;97.60;;;;;;5089577;27;20037;-85
2022/08/30 11:26:06;;;;;;;6.88;1.75;;;23.60;96.30;;;;;;5095658;28;20053;-86
2022/08/30 11:28:35;;;;;;;5.63;1.63;;;23.60;96.70;;;;;;5085659;27;20123;-89
2022/08/30 11:31:06;;;;;;;5.22;1.73;;;23.70;96.50;;;;;;5121690;27;20047;-90
2022/08/30 11:33:56;;;;;;;4.05;1.58;;;23.80;96.70;;;;;;5122525;27;20065;-89
2022/08/30 11:36:28;;;;;;;4.82;1.63;;;23.10;95.30;;;;;;5124663;27;20032;-88
2022/08/30 11:38:53;;;;;;;4.82;1.60;;;23.50;97.00;;;;;;5105820;27;20049;-88
2022/08/30 11:41:38;;;;;;;7.18;1.70;;;23.90;97.50;;;;;;5123676;27;20031;-87
2022/08/30 11:44:31;;;;;;;5.47;1.70;;;23.70;95.80;;;;;;5094985;27;20050;-91
2022/08/30 11:47:21;;;;;;;4.80;1.50;;;24.20;94.70;;;;;;5086052;27;20056;-89
2022/08/30 11:50:07;;;;;;;6.35;1.80;;;23.70;96.20;;;;;;5082460;27;20093;-90
2022/08/30 11:52:46;;;;;;;5.60;1.60;;;23.70;96.20;;;;;;5099976;28;20052;-89
2022/08/30 11:55:33;;;;;;;5.50;1.65;;;23.90;95.60;;;;;;5114137;28;20051;-91
2022/08/30 11:58:40;;;;;;;4.85;1.60;;;24.10;95.90;;;;;;5099777;28;20047;-91
2022/08/30 12:01:24;;;;;;;4.25;1.65;;;24.20;95.70;;;;;;5095274;28;20527;-89
2022/08/30 12:04:16;;;;;;;4.68;1.58;;;24.10;95.60;;;;;;5113480;28;20467;-89
2022/08/30 12:07:03;;;;;;;4.85;1.67;;;24.00;96.30;;;;;;5057808;28;20392;-89
2022/08/30 12:09:29;;;;;;;4.78;1.60;;;24.10;95.00;;;;;;5095920;28;20054;-89
2022/08/30 12:12:08;;;;;;;4.47;1.60;;;24.50;95.80;;;;;;5112915;28;20071;-90
2022/08/30 12:14:46;;;;;;;5.93;1.92;;;24.80;95.60;;;;;;5094806;28;20047;-91
2022/08/30 12:20:19;;;;;;;5.47;1.70;;;24.60;94.50;;;;;;5094296;28;20051;-90
2022/08/30 12:22:44;;;;;;;4.95;1.65;;;24.60;95.00;;;;;;5113612;28;20491;-88
2022/08/30 12:25:19;;;;;;;5.15;1.70;;;24.50;94.70;;;;;;5095611;28;20047;-91
2022/08/30 12:27:44;;;;;;;5.10;1.70;;;24.70;94.00;;;;;;5097576;28;20051;-91
2022/08/30 12:30:13;;;;;;;5.18;1.70;;;25.10;94.20;;;;;;5113259;28;20047;-88
2022/08/30 12:32:45;;;;;;;6.28;1.60;;;25.00;94.40;;;;;;5095906;28;20092;-87
2022/08/30 12:35:38;;;;;;;7.38;1.73;;;25.20;93.90;;;;;;5156857;22;20041;-88
2022/08/30 12:38:10;;;;;;;5.07;1.57;;;25.10;92.60;;;;;;5055400;28;20392;-91
2022/08/30 12:40:57;;;;;;;6.93;1.95;;;26.20;94.20;;;;;;5073033;28;20381;-87
2022/08/30 12:43:50;;;;;;;5.03;1.67;;;26.30;93.40;;;;;;5063352;28;20448;-89
2022/08/30 12:46:18;;;;;;;4.20;1.50;;;26.00;93.40;;;;;;5054270;28;20059;-88
2022/08/30 12:48:56;;;;;;;5.50;1.80;;;25.30;93.00;;;;;;5072443;28;20044;-89
2022/08/30 12:51:38;;;;;;;5.15;1.70;;;24.60;94.00;;;;;;5072063;28;20037;-87
2022/08/30 12:54:18;;;;;;;6.20;1.73;;;24.20;94.00;;;;;;5065008;22;20224;-86
2022/08/30 12:56:56;;;;;;;4.60;1.50;;;24.30;93.90;;;;;;5162848;22;20070;-86
2022/08/30 12:59:37;;;;;;;4.55;1.60;;;24.10;93.60;;;;;;5073731;28;20048;-86
2022/08/30 13:02:19;;;;;;;5.35;1.70;;;24.00;93.60;;;;;;5073571;28;20514;-86
2022/08/30 13:04:47;;;;;;;5.20;1.60;;;24.30;94.70;;;;;;5074127;28;20381;-85
2022/08/30 13:07:29;;;;;;;4.93;1.75;;;23.90;94.60;;;;;;5073525;28;20488;-85
2022/08/30 13:10:05;;;;;;;4.57;1.65;;;24.10;94.50;;;;;;5074615;28;20043;-86